KJST/JST METAR and TAF weather

Enter ICAO airport designator
Station Type Date Time Source
KJST METAR 2019/12/09 05:54 UTC NOAA

KJST 090554Z AUTO 16010KT 10SM BKN060 03/M08 A3008 RMK AO2 SLP203 T00281078 10033 20022 58017


Station Type Date Time Source
KJST Decoded METAR 2019/12/09 05:54 UTC NOAA

JOHNSTOWN-CAMBRIA CO AIRPORT , PA, United States (KJST) 40-19N 078-50W 694M
Dec 09, 2019 - 12:54 AM EST / 2019.12.09 0554 UTC
Wind: from the SSE (160 degrees) at 12 MPH (10 KT):0
Visibility: 10 mile(s):0
Sky conditions: mostly cloudy
Temperature: 37.0 F (2.8 C)
Dew Point: 18.0 F (-7.8 C)
Relative Humidity: 45%
Pressure (altimeter): 30.08 in. Hg (1018 hPa)
Pressure tendency: 0.05 inches (1.7 hPa) lower than three hours ago
ob: KJST 090554Z AUTO 16010KT 10SM BKN060 03/M08 A3008 RMK AO2 SLP203 T00281078 10033 20022 58017
cycle: 6

Station Type Date Time Source
KJST TAF 2019/12/09 06:45 UTC NOAA

TAF KJST 090541Z 0906/1006 17008KT P6SM BKN050 OVC200
FM091100 18008KT P6SM -RA OVC025
FM091300 17009KT 3SM -RA BR SCT007 BKN015 OVC045 WS012/21035KT
FM092100 20012G21KT P6SM VCSH FEW007 SCT015 OVC040

Example: see airport list